sensor_id;sensor_type;location;lat;lon;timestamp;temperature;humidity
58469;DHT22;44257;44.804;10.220;2022-10-22T00:01:59;15.70;99.90
58469;DHT22;44257;44.804;10.220;2022-10-22T00:04:24;15.70;99.90
58469;DHT22;44257;44.804;10.220;2022-10-22T00:06:50;15.80;99.90
58469;DHT22;44257;44.804;10.220;2022-10-22T00:09:16;15.80;99.90
58469;DHT22;44257;44.804;10.220;2022-10-22T00:11:43;15.80;99.90
58469;DHT22;44257;44.804;10.220;2022-10-22T00:14:08;15.80;99.90
58469;DHT22;44257;44.804;10.220;2022-10-22T00:16:34;15.80;99.90
58469;DHT22;44257;44.804;10.220;2022-10-22T00:19:00;15.80;99.90
58469;DHT22;44257;44.804;10.220;2022-10-22T00:21:26;15.80;99.90
58469;DHT22;44257;44.804;10.220;2022-10-22T00:23:54;15.80;99.90
58469;DHT22;44257;44.804;10.220;2022-10-22T00:26:20;15.80;99.90
58469;DHT22;44257;44.804;10.220;2022-10-22T00:28:46;15.80;99.90
58469;DHT22;44257;44.804;10.220;2022-10-22T00:31:12;15.80;99.90
58469;DHT22;44257;44.804;10.220;2022-10-22T00:33:40;15.80;99.90
58469;DHT22;44257;44.804;10.220;2022-10-22T00:36:06;15.80;99.90
58469;DHT22;44257;44.804;10.220;2022-10-22T00:38:33;15.80;99.90
58469;DHT22;44257;44.804;10.220;2022-10-22T00:40:59;15.80;99.90
58469;DHT22;44257;44.804;10.220;2022-10-22T00:43:26;15.90;99.90
58469;DHT22;44257;44.804;10.220;2022-10-22T00:45:51;15.90;99.90
58469;DHT22;44257;44.804;10.220;2022-10-22T00:48:28;15.90;99.90
58469;DHT22;44257;44.804;10.220;2022-10-22T00:51:02;15.80;99.90
58469;DHT22;44257;44.804;10.220;2022-10-22T00:53:35;15.80;99.90
58469;DHT22;44257;44.804;10.220;2022-10-22T00:56:02;15.80;99.90
58469;DHT22;44257;44.804;10.220;2022-10-22T00:58:31;15.80;99.90
58469;DHT22;44257;44.804;10.220;2022-10-22T01:01:00;15.80;99.90
58469;DHT22;44257;44.804;10.220;2022-10-22T01:03:27;15.80;99.90
58469;DHT22;44257;44.804;10.220;2022-10-22T01:06:02;15.80;99.90
58469;DHT22;44257;44.804;10.220;2022-10-22T01:11:20;15.80;99.90
58469;DHT22;44257;44.804;10.220;2022-10-22T01:16:25;15.80;99.90
58469;DHT22;44257;44.804;10.220;2022-10-22T01:22:02;15.80;99.90
58469;DHT22;44257;44.804;10.220;2022-10-22T01:30:10;15.80;99.90
58469;DHT22;44257;44.804;10.220;2022-10-22T01:32:42;15.80;99.90
58469;DHT22;44257;44.804;10.220;2022-10-22T01:35:12;15.80;99.90
58469;DHT22;44257;44.804;10.220;2022-10-22T01:37:51;15.80;99.90
58469;DHT22;44257;44.804;10.220;2022-10-22T01:40:19;15.80;99.90
58469;DHT22;44257;44.804;10.220;2022-10-22T01:42:59;15.80;99.90
58469;DHT22;44257;44.804;10.220;2022-10-22T01:45:27;15.80;99.90
58469;DHT22;44257;44.804;10.220;2022-10-22T01:57:22;15.80;99.90
58469;DHT22;44257;44.804;10.220;2022-10-22T02:02:54;15.90;99.90
58469;DHT22;44257;44.804;10.220;2022-10-22T02:05:53;15.80;99.90
58469;DHT22;44257;44.804;10.220;2022-10-22T02:08:23;15.70;99.90
58469;DHT22;44257;44.804;10.220;2022-10-22T02:10:51;15.70;99.90
58469;DHT22;44257;44.804;10.220;2022-10-22T02:13:23;15.70;99.90
58469;DHT22;44257;44.804;10.220;2022-10-22T02:15:52;15.70;99.90
58469;DHT22;44257;44.804;10.220;2022-10-22T02:18:22;15.70;99.90
58469;DHT22;44257;44.804;10.220;2022-10-22T02:20:49;15.70;99.90
58469;DHT22;44257;44.804;10.220;2022-10-22T02:23:15;15.60;99.90
58469;DHT22;44257;44.804;10.220;2022-10-22T02:25:43;15.60;99.90
58469;DHT22;44257;44.804;10.220;2022-10-22T02:28:20;15.50;99.90
58469;DHT22;44257;44.804;10.220;2022-10-22T02:30:51;15.50;99.90
58469;DHT22;44257;44.804;10.220;2022-10-22T02:33:35;15.50;99.90
58469;DHT22;44257;44.804;10.220;2022-10-22T02:36:04;15.50;99.90
58469;DHT22;44257;44.804;10.220;2022-10-22T02:38:31;15.50;99.90
58469;DHT22;44257;44.804;10.220;2022-10-22T02:40:59;15.50;99.90
58469;DHT22;44257;44.804;10.220;2022-10-22T02:43:25;15.50;99.90
58469;DHT22;44257;44.804;10.220;2022-10-22T02:45:53;15.50;99.90
58469;DHT22;44257;44.804;10.220;2022-10-22T02:48:18;15.60;99.90
58469;DHT22;44257;44.804;10.220;2022-10-22T02:50:44;15.50;99.90
58469;DHT22;44257;44.804;10.220;2022-10-22T02:53:10;15.50;99.90
58469;DHT22;44257;44.804;10.220;2022-10-22T02:55:36;15.50;99.90
58469;DHT22;44257;44.804;10.220;2022-10-22T02:58:02;15.60;99.90
58469;DHT22;44257;44.804;10.220;2022-10-22T03:00:28;15.70;99.90
58469;DHT22;44257;44.804;10.220;2022-10-22T03:02:53;15.70;99.90
58469;DHT22;44257;44.804;10.220;2022-10-22T03:05:19;15.70;99.90
58469;DHT22;44257;44.804;10.220;2022-10-22T03:07:45;15.60;99.90
58469;DHT22;44257;44.804;10.220;2022-10-22T03:10:11;15.50;99.90
58469;DHT22;44257;44.804;10.220;2022-10-22T03:12:36;15.50;99.90
58469;DHT22;44257;44.804;10.220;2022-10-22T03:15:03;15.50;99.90
58469;DHT22;44257;44.804;10.220;2022-10-22T03:17:28;15.40;99.90
58469;DHT22;44257;44.804;10.220;2022-10-22T03:19:54;15.30;99.90
58469;DHT22;44257;44.804;10.220;2022-10-22T03:22:28;15.30;99.90
58469;DHT22;44257;44.804;10.220;2022-10-22T03:24:59;15.20;99.90
58469;DHT22;44257;44.804;10.220;2022-10-22T03:27:27;15.20;99.90
58469;DHT22;44257;44.804;10.220;2022-10-22T03:29:53;15.10;99.90
58469;DHT22;44257;44.804;10.220;2022-10-22T03:32:20;15.10;99.90
58469;DHT22;44257;44.804;10.220;2022-10-22T03:34:46;15.10;99.90
58469;DHT22;44257;44.804;10.220;2022-10-22T03:37:12;15.10;99.90
58469;DHT22;44257;44.804;10.220;2022-10-22T03:39:38;15.00;99.90
58469;DHT22;44257;44.804;10.220;2022-10-22T03:42:05;15.00;99.90
58469;DHT22;44257;44.804;10.220;2022-10-22T03:44:33;15.00;99.90
58469;DHT22;44257;44.804;10.220;2022-10-22T03:46:59;15.00;99.90
58469;DHT22;44257;44.804;10.220;2022-10-22T03:49:25;15.00;99.90
58469;DHT22;44257;44.804;10.220;2022-10-22T03:51:51;14.90;99.90
58469;DHT22;44257;44.804;10.220;2022-10-22T03:54:17;14.90;99.90
58469;DHT22;44257;44.804;10.220;2022-10-22T03:56:43;14.90;99.90
58469;DHT22;44257;44.804;10.220;2022-10-22T03:59:08;14.90;99.90
58469;DHT22;44257;44.804;10.220;2022-10-22T04:01:34;14.90;99.90
58469;DHT22;44257;44.804;10.220;2022-10-22T04:04:00;14.90;99.90
58469;DHT22;44257;44.804;10.220;2022-10-22T04:06:28;14.80;99.90
58469;DHT22;44257;44.804;10.220;2022-10-22T04:08:54;14.80;99.90
58469;DHT22;44257;44.804;10.220;2022-10-22T04:11:20;14.80;99.90
58469;DHT22;44257;44.804;10.220;2022-10-22T04:13:46;14.70;99.90
58469;DHT22;44257;44.804;10.220;2022-10-22T04:16:21;14.80;99.90
58469;DHT22;44257;44.804;10.220;2022-10-22T04:18:48;14.80;99.90
58469;DHT22;44257;44.804;10.220;2022-10-22T04:21:16;14.70;99.90
58469;DHT22;44257;44.804;10.220;2022-10-22T04:23:48;14.70;99.90
58469;DHT22;44257;44.804;10.220;2022-10-22T04:26:15;14.70;99.90
58469;DHT22;44257;44.804;10.220;2022-10-22T04:28:42;14.70;99.90
58469;DHT22;44257;44.804;10.220;2022-10-22T04:31:15;14.70;99.90
58469;DHT22;44257;44.804;10.220;2022-10-22T04:33:42;14.60;99.90
58469;DHT22;44257;44.804;10.220;2022-10-22T04:36:14;14.60;99.90
58469;DHT22;44257;44.804;10.220;2022-10-22T04:38:41;14.60;99.90
58469;DHT22;44257;44.804;10.220;2022-10-22T04:41:13;14.60;99.90
58469;DHT22;44257;44.804;10.220;2022-10-22T04:43:39;14.60;99.90
58469;DHT22;44257;44.804;10.220;2022-10-22T04:46:05;14.70;99.90
58469;DHT22;44257;44.804;10.220;2022-10-22T04:48:34;14.70;99.90
58469;DHT22;44257;44.804;10.220;2022-10-22T04:51:01;14.70;99.90
58469;DHT22;44257;44.804;10.220;2022-10-22T04:53:26;14.70;99.90
58469;DHT22;44257;44.804;10.220;2022-10-22T04:55:53;14.70;99.90
58469;DHT22;44257;44.804;10.220;2022-10-22T04:58:19;14.70;99.90
58469;DHT22;44257;44.804;10.220;2022-10-22T05:00:46;14.70;99.90
58469;DHT22;44257;44.804;10.220;2022-10-22T05:03:12;14.80;99.90
58469;DHT22;44257;44.804;10.220;2022-10-22T05:05:37;14.80;99.90
58469;DHT22;44257;44.804;10.220;2022-10-22T05:08:03;14.80;99.90
58469;DHT22;44257;44.804;10.220;2022-10-22T05:10:29;14.80;99.90
58469;DHT22;44257;44.804;10.220;2022-10-22T05:12:55;14.80;99.90
58469;DHT22;44257;44.804;10.220;2022-10-22T05:15:21;14.80;99.90
58469;DHT22;44257;44.804;10.220;2022-10-22T05:17:46;14.70;99.90
58469;DHT22;44257;44.804;10.220;2022-10-22T05:20:12;14.70;99.90
58469;DHT22;44257;44.804;10.220;2022-10-22T05:22:38;14.70;99.90
58469;DHT22;44257;44.804;10.220;2022-10-22T05:25:04;14.70;99.90
58469;DHT22;44257;44.804;10.220;2022-10-22T05:27:30;14.70;99.90
58469;DHT22;44257;44.804;10.220;2022-10-22T05:29:56;14.70;99.90
58469;DHT22;44257;44.804;10.220;2022-10-22T05:32:22;14.70;99.90
58469;DHT22;44257;44.804;10.220;2022-10-22T05:34:47;14.70;99.90
58469;DHT22;44257;44.804;10.220;2022-10-22T05:37:13;14.70;99.90
58469;DHT22;44257;44.804;10.220;2022-10-22T05:39:39;14.80;99.90
58469;DHT22;44257;44.804;10.220;2022-10-22T05:42:06;14.80;99.90
58469;DHT22;44257;44.804;10.220;2022-10-22T05:44:31;14.90;99.90
58469;DHT22;44257;44.804;10.220;2022-10-22T05:46:57;15.00;99.90
58469;DHT22;44257;44.804;10.220;2022-10-22T05:49:23;15.10;99.90
58469;DHT22;44257;44.804;10.220;2022-10-22T05:51:49;15.20;99.90
58469;DHT22;44257;44.804;10.220;2022-10-22T05:54:17;15.20;99.90
58469;DHT22;44257;44.804;10.220;2022-10-22T05:56:43;15.20;99.90
58469;DHT22;44257;44.804;10.220;2022-10-22T05:59:10;15.30;99.90
58469;DHT22;44257;44.804;10.220;2022-10-22T06:01:38;15.30;99.90
58469;DHT22;44257;44.804;10.220;2022-10-22T06:04:07;15.30;99.90
58469;DHT22;44257;44.804;10.220;2022-10-22T06:06:37;15.30;99.90
58469;DHT22;44257;44.804;10.220;2022-10-22T06:09:08;15.30;99.90
58469;DHT22;44257;44.804;10.220;2022-10-22T06:11:35;15.30;99.90
58469;DHT22;44257;44.804;10.220;2022-10-22T06:14:02;15.30;99.90
58469;DHT22;44257;44.804;10.220;2022-10-22T06:16:29;15.30;99.90
58469;DHT22;44257;44.804;10.220;2022-10-22T06:18:57;15.30;99.90
58469;DHT22;44257;44.804;10.220;2022-10-22T06:21:23;15.30;99.90
58469;DHT22;44257;44.804;10.220;2022-10-22T06:23:48;15.40;99.90
58469;DHT22;44257;44.804;10.220;2022-10-22T06:26:14;15.40;99.90
58469;DHT22;44257;44.804;10.220;2022-10-22T06:28:42;15.40;99.90
58469;DHT22;44257;44.804;10.220;2022-10-22T06:31:08;15.50;99.90
58469;DHT22;44257;44.804;10.220;2022-10-22T06:33:34;15.70;99.90
58469;DHT22;44257;44.804;10.220;2022-10-22T06:36:14;16.20;99.90
58469;DHT22;44257;44.804;10.220;2022-10-22T06:38:41;16.80;99.90
58469;DHT22;44257;44.804;10.220;2022-10-22T06:41:10;17.30;99.90
58469;DHT22;44257;44.804;10.220;2022-10-22T06:43:36;17.90;99.90
58469;DHT22;44257;44.804;10.220;2022-10-22T06:46:03;18.40;99.90
58469;DHT22;44257;44.804;10.220;2022-10-22T06:48:30;18.80;99.90
58469;DHT22;44257;44.804;10.220;2022-10-22T06:51:00;19.10;99.90
58469;DHT22;44257;44.804;10.220;2022-10-22T06:53:26;19.40;99.90
58469;DHT22;44257;44.804;10.220;2022-10-22T06:55:52;19.70;99.90
58469;DHT22;44257;44.804;10.220;2022-10-22T06:58:18;19.90;99.90
58469;DHT22;44257;44.804;10.220;2022-10-22T07:00:43;20.20;99.90
58469;DHT22;44257;44.804;10.220;2022-10-22T07:03:13;20.40;99.90
58469;DHT22;44257;44.804;10.220;2022-10-22T07:05:39;20.60;99.90
58469;DHT22;44257;44.804;10.220;2022-10-22T07:08:05;20.90;99.90
58469;DHT22;44257;44.804;10.220;2022-10-22T07:10:31;21.10;99.90
58469;DHT22;44257;44.804;10.220;2022-10-22T07:12:57;21.40;99.90
58469;DHT22;44257;44.804;10.220;2022-10-22T07:15:23;21.50;99.90
58469;DHT22;44257;44.804;10.220;2022-10-22T07:17:49;21.70;99.90
58469;DHT22;44257;44.804;10.220;2022-10-22T07:20:17;21.90;99.90
58469;DHT22;44257;44.804;10.220;2022-10-22T07:22:44;22.00;99.90
58469;DHT22;44257;44.804;10.220;2022-10-22T07:25:10;22.20;99.90
58469;DHT22;44257;44.804;10.220;2022-10-22T07:27:36;22.30;99.90
58469;DHT22;44257;44.804;10.220;2022-10-22T07:30:03;22.30;99.90
58469;DHT22;44257;44.804;10.220;2022-10-22T07:32:28;21.70;99.90
58469;DHT22;44257;44.804;10.220;2022-10-22T07:34:54;21.30;99.90
58469;DHT22;44257;44.804;10.220;2022-10-22T07:37:20;20.80;99.90
58469;DHT22;44257;44.804;10.220;2022-10-22T07:39:49;20.40;99.90
58469;DHT22;44257;44.804;10.220;2022-10-22T07:42:15;19.90;99.90
58469;DHT22;44257;44.804;10.220;2022-10-22T07:44:41;19.60;99.90
58469;DHT22;44257;44.804;10.220;2022-10-22T07:47:08;19.30;99.90
58469;DHT22;44257;44.804;10.220;2022-10-22T07:49:34;19.10;99.90
58469;DHT22;44257;44.804;10.220;2022-10-22T07:51:59;19.00;99.90
58469;DHT22;44257;44.804;10.220;2022-10-22T07:54:25;18.90;99.90
58469;DHT22;44257;44.804;10.220;2022-10-22T07:56:51;18.90;99.90
58469;DHT22;44257;44.804;10.220;2022-10-22T07:59:17;18.90;99.90
58469;DHT22;44257;44.804;10.220;2022-10-22T08:01:42;18.90;99.90
58469;DHT22;44257;44.804;10.220;2022-10-22T08:04:08;19.00;99.90
58469;DHT22;44257;44.804;10.220;2022-10-22T08:06:35;18.90;99.90
58469;DHT22;44257;44.804;10.220;2022-10-22T08:09:01;18.90;99.90
58469;DHT22;44257;44.804;10.220;2022-10-22T08:11:27;19.00;99.90
58469;DHT22;44257;44.804;10.220;2022-10-22T08:13:53;19.10;99.90
58469;DHT22;44257;44.804;10.220;2022-10-22T08:16:19;19.10;99.90
58469;DHT22;44257;44.804;10.220;2022-10-22T08:18:44;19.10;99.90
58469;DHT22;44257;44.804;10.220;2022-10-22T08:21:11;19.10;99.90
58469;DHT22;44257;44.804;10.220;2022-10-22T08:23:37;19.20;99.90
58469;DHT22;44257;44.804;10.220;2022-10-22T08:26:03;19.30;99.90
58469;DHT22;44257;44.804;10.220;2022-10-22T08:28:29;19.40;99.90
58469;DHT22;44257;44.804;10.220;2022-10-22T08:30:57;19.50;99.90
58469;DHT22;44257;44.804;10.220;2022-10-22T08:33:23;19.60;99.90
58469;DHT22;44257;44.804;10.220;2022-10-22T08:35:50;19.70;99.90
58469;DHT22;44257;44.804;10.220;2022-10-22T08:38:16;19.80;99.90
58469;DHT22;44257;44.804;10.220;2022-10-22T08:40:43;19.90;99.90
58469;DHT22;44257;44.804;10.220;2022-10-22T08:48:53;19.90;99.90
58469;DHT22;44257;44.804;10.220;2022-10-22T08:51:25;19.90;99.90
58469;DHT22;44257;44.804;10.220;2022-10-22T08:56:23;20.00;99.90
58469;DHT22;44257;44.804;10.220;2022-10-22T08:59:00;20.00;99.90
58469;DHT22;44257;44.804;10.220;2022-10-22T09:01:35;20.00;99.90
58469;DHT22;44257;44.804;10.220;2022-10-22T09:04:13;20.00;99.90
58469;DHT22;44257;44.804;10.220;2022-10-22T09:06:41;20.00;99.90
58469;DHT22;44257;44.804;10.220;2022-10-22T09:09:16;20.10;99.90
58469;DHT22;44257;44.804;10.220;2022-10-22T09:11:49;20.10;99.90
58469;DHT22;44257;44.804;10.220;2022-10-22T09:14:21;20.10;99.90
58469;DHT22;44257;44.804;10.220;2022-10-22T09:23:13;20.40;99.90
58469;DHT22;44257;44.804;10.220;2022-10-22T09:25:43;20.60;99.90
58469;DHT22;44257;44.804;10.220;2022-10-22T09:28:09;20.80;99.90
58469;DHT22;44257;44.804;10.220;2022-10-22T09:30:37;21.00;99.90
58469;DHT22;44257;44.804;10.220;2022-10-22T09:35:47;21.40;99.90
58469;DHT22;44257;44.804;10.220;2022-10-22T09:38:19;21.60;99.90
58469;DHT22;44257;44.804;10.220;2022-10-22T09:40:50;21.70;99.90
58469;DHT22;44257;44.804;10.220;2022-10-22T09:43:16;21.70;99.90
58469;DHT22;44257;44.804;10.220;2022-10-22T09:45:43;21.70;99.90
58469;DHT22;44257;44.804;10.220;2022-10-22T09:48:21;21.80;99.90
58469;DHT22;44257;44.804;10.220;2022-10-22T09:51:04;21.90;99.90
58469;DHT22;44257;44.804;10.220;2022-10-22T09:53:36;21.90;99.90
58469;DHT22;44257;44.804;10.220;2022-10-22T09:56:12;21.90;99.90
58469;DHT22;44257;44.804;10.220;2022-10-22T09:58:46;21.80;99.90
58469;DHT22;44257;44.804;10.220;2022-10-22T10:01:19;21.90;99.90
58469;DHT22;44257;44.804;10.220;2022-10-22T10:03:48;21.90;99.90
58469;DHT22;44257;44.804;10.220;2022-10-22T10:06:21;21.80;99.90
58469;DHT22;44257;44.804;10.220;2022-10-22T10:08:48;21.70;99.90
58469;DHT22;44257;44.804;10.220;2022-10-22T10:11:41;21.70;99.90
58469;DHT22;44257;44.804;10.220;2022-10-22T10:25:13;22.10;99.90
58469;DHT22;44257;44.804;10.220;2022-10-22T10:27:59;22.30;99.90
58469;DHT22;44257;44.804;10.220;2022-10-22T10:30:25;22.30;99.90
58469;DHT22;44257;44.804;10.220;2022-10-22T10:35:38;22.40;99.90
58469;DHT22;44257;44.804;10.220;2022-10-22T10:40:58;22.70;99.90
58469;DHT22;44257;44.804;10.220;2022-10-22T10:49:13;22.50;99.90
58469;DHT22;44257;44.804;10.220;2022-10-22T10:51:51;22.40;99.90
58469;DHT22;44257;44.804;10.220;2022-10-22T11:00:16;22.60;99.90
58469;DHT22;44257;44.804;10.220;2022-10-22T11:08:19;23.00;99.90
58469;DHT22;44257;44.804;10.220;2022-10-22T11:18:40;23.30;99.90
58469;DHT22;44257;44.804;10.220;2022-10-22T11:21:44;23.30;99.90
58469;DHT22;44257;44.804;10.220;2022-10-22T11:24:20;23.30;99.90
58469;DHT22;44257;44.804;10.220;2022-10-22T11:26:59;23.20;99.90
58469;DHT22;44257;44.804;10.220;2022-10-22T11:29:37;23.10;99.90
58469;DHT22;44257;44.804;10.220;2022-10-22T11:32:19;23.10;99.90
58469;DHT22;44257;44.804;10.220;2022-10-22T11:34:57;23.00;99.90
58469;DHT22;44257;44.804;10.220;2022-10-22T11:37:27;23.00;99.90
58469;DHT22;44257;44.804;10.220;2022-10-22T11:39:57;23.10;99.90
58469;DHT22;44257;44.804;10.220;2022-10-22T11:42:43;23.10;99.90
58469;DHT22;44257;44.804;10.220;2022-10-22T12:14:06;23.30;99.90
58469;DHT22;44257;44.804;10.220;2022-10-22T12:16:39;23.70;99.90
58469;DHT22;44257;44.804;10.220;2022-10-22T12:19:14;24.00;99.90
58469;DHT22;44257;44.804;10.220;2022-10-22T12:21:44;24.40;99.90
58469;DHT22;44257;44.804;10.220;2022-10-22T12:24:18;24.70;99.90
58469;DHT22;44257;44.804;10.220;2022-10-22T12:26:45;24.80;99.90
58469;DHT22;44257;44.804;10.220;2022-10-22T12:29:14;24.90;99.90
58469;DHT22;44257;44.804;10.220;2022-10-22T12:31:44;24.90;99.90
58469;DHT22;44257;44.804;10.220;2022-10-22T12:34:16;24.90;99.90
58469;DHT22;44257;44.804;10.220;2022-10-22T12:36:43;24.90;99.90
58469;DHT22;44257;44.804;10.220;2022-10-22T12:39:21;24.90;99.90
58469;DHT22;44257;44.804;10.220;2022-10-22T12:41:48;24.80;99.90
58469;DHT22;44257;44.804;10.220;2022-10-22T12:44:16;24.50;99.90
58469;DHT22;44257;44.804;10.220;2022-10-22T12:46:44;24.20;99.90
58469;DHT22;44257;44.804;10.220;2022-10-22T12:49:18;24.00;99.90
58469;DHT22;44257;44.804;10.220;2022-10-22T12:51:45;23.90;99.90
58469;DHT22;44257;44.804;10.220;2022-10-22T12:54:31;23.90;99.90
58469;DHT22;44257;44.804;10.220;2022-10-22T12:56:57;23.90;99.90
58469;DHT22;44257;44.804;10.220;2022-10-22T13:01:53;24.00;99.90
58469;DHT22;44257;44.804;10.220;2022-10-22T13:09:37;23.70;99.90
58469;DHT22;44257;44.804;10.220;2022-10-22T13:12:06;23.50;99.90
58469;DHT22;44257;44.804;10.220;2022-10-22T13:14:36;23.40;99.90
58469;DHT22;44257;44.804;10.220;2022-10-22T13:17:19;23.40;99.90
58469;DHT22;44257;44.804;10.220;2022-10-22T13:19:47;23.40;99.90
58469;DHT22;44257;44.804;10.220;2022-10-22T13:22:41;23.40;99.90
58469;DHT22;44257;44.804;10.220;2022-10-22T13:27:48;23.30;99.90
58469;DHT22;44257;44.804;10.220;2022-10-22T13:30:26;23.20;99.90
58469;DHT22;44257;44.804;10.220;2022-10-22T13:32:59;23.20;99.90
58469;DHT22;44257;44.804;10.220;2022-10-22T13:35:36;23.20;99.90
58469;DHT22;44257;44.804;10.220;2022-10-22T13:38:28;23.20;99.90
58469;DHT22;44257;44.804;10.220;2022-10-22T13:40:55;23.10;99.90
58469;DHT22;44257;44.804;10.220;2022-10-22T13:43:21;23.10;99.90
58469;DHT22;44257;44.804;10.220;2022-10-22T13:45:52;23.00;99.90
58469;DHT22;44257;44.804;10.220;2022-10-22T13:48:19;23.00;99.90
58469;DHT22;44257;44.804;10.220;2022-10-22T13:50:48;23.10;99.90
58469;DHT22;44257;44.804;10.220;2022-10-22T13:53:17;23.20;99.90
58469;DHT22;44257;44.804;10.220;2022-10-22T13:55:44;23.30;99.90
58469;DHT22;44257;44.804;10.220;2022-10-22T13:58:31;23.40;99.90
58469;DHT22;44257;44.804;10.220;2022-10-22T14:00:58;23.50;99.90
58469;DHT22;44257;44.804;10.220;2022-10-22T14:03:29;23.40;99.90
58469;DHT22;44257;44.804;10.220;2022-10-22T14:05:56;23.40;99.90
58469;DHT22;44257;44.804;10.220;2022-10-22T14:08:23;23.40;99.90
58469;DHT22;44257;44.804;10.220;2022-10-22T14:10:50;23.40;99.90
58469;DHT22;44257;44.804;10.220;2022-10-22T14:13:17;23.40;99.90
58469;DHT22;44257;44.804;10.220;2022-10-22T14:15:46;23.40;99.90
58469;DHT22;44257;44.804;10.220;2022-10-22T14:18:17;23.30;99.90
58469;DHT22;44257;44.804;10.220;2022-10-22T14:20:57;23.30;99.90
58469;DHT22;44257;44.804;10.220;2022-10-22T14:23:26;23.30;99.90
58469;DHT22;44257;44.804;10.220;2022-10-22T14:25:53;23.30;99.90
58469;DHT22;44257;44.804;10.220;2022-10-22T14:28:19;23.20;99.90
58469;DHT22;44257;44.804;10.220;2022-10-22T14:30:45;23.20;99.90
58469;DHT22;44257;44.804;10.220;2022-10-22T14:35:47;23.10;99.90
58469;DHT22;44257;44.804;10.220;2022-10-22T14:38:13;23.00;99.90
58469;DHT22;44257;44.804;10.220;2022-10-22T14:40:40;22.90;99.90
58469;DHT22;44257;44.804;10.220;2022-10-22T14:43:22;22.80;99.90
58469;DHT22;44257;44.804;10.220;2022-10-22T14:45:49;22.80;99.90
58469;DHT22;44257;44.804;10.220;2022-10-22T14:48:15;22.80;99.90
58469;DHT22;44257;44.804;10.220;2022-10-22T14:50:45;22.70;99.90
58469;DHT22;44257;44.804;10.220;2022-10-22T14:53:11;22.70;99.90
58469;DHT22;44257;44.804;10.220;2022-10-22T14:55:39;22.70;99.90
58469;DHT22;44257;44.804;10.220;2022-10-22T14:58:05;22.60;99.90
58469;DHT22;44257;44.804;10.220;2022-10-22T15:00:31;22.60;99.90
58469;DHT22;44257;44.804;10.220;2022-10-22T15:02:59;22.60;99.90
58469;DHT22;44257;44.804;10.220;2022-10-22T15:05:25;22.50;99.90
58469;DHT22;44257;44.804;10.220;2022-10-22T15:07:51;22.60;99.90
58469;DHT22;44257;44.804;10.220;2022-10-22T15:10:16;22.60;99.90
58469;DHT22;44257;44.804;10.220;2022-10-22T15:12:42;22.60;99.90
58469;DHT22;44257;44.804;10.220;2022-10-22T15:15:08;22.60;99.90
58469;DHT22;44257;44.804;10.220;2022-10-22T15:17:34;22.60;99.90
58469;DHT22;44257;44.804;10.220;2022-10-22T15:20:00;22.50;99.90
58469;DHT22;44257;44.804;10.220;2022-10-22T15:22:29;22.40;99.90
58469;DHT22;44257;44.804;10.220;2022-10-22T15:24:57;22.40;99.90
58469;DHT22;44257;44.804;10.220;2022-10-22T15:27:23;22.30;99.90
58469;DHT22;44257;44.804;10.220;2022-10-22T15:29:49;22.30;99.90
58469;DHT22;44257;44.804;10.220;2022-10-22T15:32:15;22.30;99.90
58469;DHT22;44257;44.804;10.220;2022-10-22T15:34:41;22.20;99.90
58469;DHT22;44257;44.804;10.220;2022-10-22T15:37:10;22.20;99.90
58469;DHT22;44257;44.804;10.220;2022-10-22T15:39:41;22.10;99.90
58469;DHT22;44257;44.804;10.220;2022-10-22T15:42:07;22.00;99.90
58469;DHT22;44257;44.804;10.220;2022-10-22T15:44:34;22.00;99.90
58469;DHT22;44257;44.804;10.220;2022-10-22T15:47:03;21.90;99.90
58469;DHT22;44257;44.804;10.220;2022-10-22T15:49:30;21.90;99.90
58469;DHT22;44257;44.804;10.220;2022-10-22T15:51:56;21.80;99.90
58469;DHT22;44257;44.804;10.220;2022-10-22T15:54:26;21.80;99.90
58469;DHT22;44257;44.804;10.220;2022-10-22T15:56:54;21.70;99.90
58469;DHT22;44257;44.804;10.220;2022-10-22T15:59:20;21.70;99.90
58469;DHT22;44257;44.804;10.220;2022-10-22T16:01:47;21.60;99.90
58469;DHT22;44257;44.804;10.220;2022-10-22T16:04:13;21.50;99.90
58469;DHT22;44257;44.804;10.220;2022-10-22T16:06:42;21.40;99.90
58469;DHT22;44257;44.804;10.220;2022-10-22T16:09:10;21.20;99.90
58469;DHT22;44257;44.804;10.220;2022-10-22T16:11:37;21.20;99.90
58469;DHT22;44257;44.804;10.220;2022-10-22T16:14:06;21.10;99.90
58469;DHT22;44257;44.804;10.220;2022-10-22T16:16:35;21.00;99.90
58469;DHT22;44257;44.804;10.220;2022-10-22T16:19:01;20.90;99.90
58469;DHT22;44257;44.804;10.220;2022-10-22T16:21:27;20.80;99.90
58469;DHT22;44257;44.804;10.220;2022-10-22T16:23:53;20.80;99.90
58469;DHT22;44257;44.804;10.220;2022-10-22T16:26:19;20.70;99.90
58469;DHT22;44257;44.804;10.220;2022-10-22T16:28:46;20.60;99.90
58469;DHT22;44257;44.804;10.220;2022-10-22T16:31:14;20.60;99.90
58469;DHT22;44257;44.804;10.220;2022-10-22T16:33:41;20.50;99.90
58469;DHT22;44257;44.804;10.220;2022-10-22T16:36:08;20.40;99.90
58469;DHT22;44257;44.804;10.220;2022-10-22T16:38:34;20.30;99.90
58469;DHT22;44257;44.804;10.220;2022-10-22T16:41:13;20.30;99.90
58469;DHT22;44257;44.804;10.220;2022-10-22T16:43:44;20.20;99.90
58469;DHT22;44257;44.804;10.220;2022-10-22T16:46:14;20.20;99.90
58469;DHT22;44257;44.804;10.220;2022-10-22T16:48:49;20.20;99.90
58469;DHT22;44257;44.804;10.220;2022-10-22T16:51:21;20.10;99.90
58469;DHT22;44257;44.804;10.220;2022-10-22T16:53:47;20.10;99.90
58469;DHT22;44257;44.804;10.220;2022-10-22T16:56:15;20.20;99.90
58469;DHT22;44257;44.804;10.220;2022-10-22T16:58:49;20.20;99.90
58469;DHT22;44257;44.804;10.220;2022-10-22T17:01:16;20.10;99.90
58469;DHT22;44257;44.804;10.220;2022-10-22T17:03:42;20.00;99.90
58469;DHT22;44257;44.804;10.220;2022-10-22T17:06:08;19.90;99.90
58469;DHT22;44257;44.804;10.220;2022-10-22T17:08:37;19.90;99.90
58469;DHT22;44257;44.804;10.220;2022-10-22T17:11:08;19.80;99.90
58469;DHT22;44257;44.804;10.220;2022-10-22T17:13:34;19.80;99.90
58469;DHT22;44257;44.804;10.220;2022-10-22T17:16:03;19.60;99.90
58469;DHT22;44257;44.804;10.220;2022-10-22T17:18:31;19.50;99.90
58469;DHT22;44257;44.804;10.220;2022-10-22T17:20:57;19.40;99.90
58469;DHT22;44257;44.804;10.220;2022-10-22T17:23:26;19.30;99.90
58469;DHT22;44257;44.804;10.220;2022-10-22T17:26:00;19.10;99.90
58469;DHT22;44257;44.804;10.220;2022-10-22T17:28:28;19.10;99.90
58469;DHT22;44257;44.804;10.220;2022-10-22T17:31:05;19.00;99.90
58469;DHT22;44257;44.804;10.220;2022-10-22T17:33:33;19.00;99.90